sensor_id;sensor_type;location;lat;lon;timestamp;temperature;humidity
41437;DHT22;27178;49.460;10.850;2023-08-21T00:00:07;30.00;65.40
41437;DHT22;27178;49.460;10.850;2023-08-21T00:02:35;30.00;65.60
41437;DHT22;27178;49.460;10.850;2023-08-21T00:05:04;30.00;65.60
41437;DHT22;27178;49.460;10.850;2023-08-21T00:07:33;30.00;65.80
41437;DHT22;27178;49.460;10.850;2023-08-21T00:10:01;30.00;65.80
41437;DHT22;27178;49.460;10.850;2023-08-21T00:12:30;29.90;65.80
41437;DHT22;27178;49.460;10.850;2023-08-21T00:14:58;29.90;65.90
41437;DHT22;27178;49.460;10.850;2023-08-21T00:17:28;29.90;66.10
41437;DHT22;27178;49.460;10.850;2023-08-21T00:19:56;29.90;66.30
41437;DHT22;27178;49.460;10.850;2023-08-21T00:22:25;29.90;66.40
41437;DHT22;27178;49.460;10.850;2023-08-21T00:24:53;29.80;66.40
41437;DHT22;27178;49.460;10.850;2023-08-21T00:27:21;29.80;66.40
41437;DHT22;27178;49.460;10.850;2023-08-21T00:29:50;29.80;66.50
41437;DHT22;27178;49.460;10.850;2023-08-21T00:32:18;29.80;66.60
41437;DHT22;27178;49.460;10.850;2023-08-21T00:34:48;29.80;66.60
41437;DHT22;27178;49.460;10.850;2023-08-21T00:37:17;29.80;67.00
41437;DHT22;27178;49.460;10.850;2023-08-21T00:39:46;29.70;66.90
41437;DHT22;27178;49.460;10.850;2023-08-21T00:42:14;29.70;66.90
41437;DHT22;27178;49.460;10.850;2023-08-21T00:44:43;29.70;66.90
41437;DHT22;27178;49.460;10.850;2023-08-21T00:47:11;29.70;67.10
41437;DHT22;27178;49.460;10.850;2023-08-21T00:49:40;29.70;67.30
41437;DHT22;27178;49.460;10.850;2023-08-21T00:52:11;29.60;67.10
41437;DHT22;27178;49.460;10.850;2023-08-21T00:54:41;29.60;67.50
41437;DHT22;27178;49.460;10.850;2023-08-21T00:57:10;29.60;67.60
41437;DHT22;27178;49.460;10.850;2023-08-21T00:59:40;29.60;67.50
41437;DHT22;27178;49.460;10.850;2023-08-21T01:02:09;29.50;67.40
41437;DHT22;27178;49.460;10.850;2023-08-21T01:04:39;29.50;67.40
41437;DHT22;27178;49.460;10.850;2023-08-21T01:07:07;29.50;67.70
41437;DHT22;27178;49.460;10.850;2023-08-21T01:09:42;29.40;67.70
41437;DHT22;27178;49.460;10.850;2023-08-21T01:12:19;29.40;68.40
41437;DHT22;27178;49.460;10.850;2023-08-21T01:14:54;29.30;68.20
41437;DHT22;27178;49.460;10.850;2023-08-21T01:17:26;29.30;68.40
41437;DHT22;27178;49.460;10.850;2023-08-21T01:19:56;29.30;68.20
41437;DHT22;27178;49.460;10.850;2023-08-21T01:22:26;29.20;68.20
41437;DHT22;27178;49.460;10.850;2023-08-21T01:24:56;29.20;68.40
41437;DHT22;27178;49.460;10.850;2023-08-21T01:27:25;29.20;68.40
41437;DHT22;27178;49.460;10.850;2023-08-21T01:29:54;29.20;68.40
41437;DHT22;27178;49.460;10.850;2023-08-21T01:32:29;29.20;68.50
41437;DHT22;27178;49.460;10.850;2023-08-21T01:35:03;29.20;68.70
41437;DHT22;27178;49.460;10.850;2023-08-21T01:37:32;29.20;68.60
41437;DHT22;27178;49.460;10.850;2023-08-21T01:40:02;29.20;68.70
41437;DHT22;27178;49.460;10.850;2023-08-21T01:42:30;29.20;68.80
41437;DHT22;27178;49.460;10.850;2023-08-21T01:44:59;29.20;68.70
41437;DHT22;27178;49.460;10.850;2023-08-21T01:47:27;29.20;68.90
41437;DHT22;27178;49.460;10.850;2023-08-21T01:49:55;29.10;68.80
41437;DHT22;27178;49.460;10.850;2023-08-21T01:52:24;29.10;68.80
41437;DHT22;27178;49.460;10.850;2023-08-21T01:54:52;29.10;69.00
41437;DHT22;27178;49.460;10.850;2023-08-21T01:57:22;29.10;69.20
41437;DHT22;27178;49.460;10.850;2023-08-21T01:59:50;29.10;69.30
41437;DHT22;27178;49.460;10.850;2023-08-21T02:02:19;29.00;69.10
41437;DHT22;27178;49.460;10.850;2023-08-21T02:04:47;29.00;69.30
41437;DHT22;27178;49.460;10.850;2023-08-21T02:07:16;29.00;69.30
41437;DHT22;27178;49.460;10.850;2023-08-21T02:09:44;29.00;69.40
41437;DHT22;27178;49.460;10.850;2023-08-21T02:12:13;29.00;69.70
41437;DHT22;27178;49.460;10.850;2023-08-21T02:14:43;29.00;69.70
41437;DHT22;27178;49.460;10.850;2023-08-21T02:17:11;29.00;69.70
41437;DHT22;27178;49.460;10.850;2023-08-21T02:19:40;29.00;69.70
41437;DHT22;27178;49.460;10.850;2023-08-21T02:22:09;28.90;69.90
41437;DHT22;27178;49.460;10.850;2023-08-21T02:24:38;28.90;69.90
41437;DHT22;27178;49.460;10.850;2023-08-21T02:27:06;28.90;70.00
41437;DHT22;27178;49.460;10.850;2023-08-21T02:29:35;28.80;70.00
41437;DHT22;27178;49.460;10.850;2023-08-21T02:32:04;28.90;70.20
41437;DHT22;27178;49.460;10.850;2023-08-21T02:34:33;28.80;70.30
41437;DHT22;27178;49.460;10.850;2023-08-21T02:37:01;28.90;70.40
41437;DHT22;27178;49.460;10.850;2023-08-21T02:39:31;28.80;70.30
41437;DHT22;27178;49.460;10.850;2023-08-21T02:42:01;28.80;70.30
41437;DHT22;27178;49.460;10.850;2023-08-21T02:44:29;28.80;70.40
41437;DHT22;27178;49.460;10.850;2023-08-21T02:46:58;28.80;70.40
41437;DHT22;27178;49.460;10.850;2023-08-21T02:49:27;28.80;70.60
41437;DHT22;27178;49.460;10.850;2023-08-21T02:51:55;28.70;70.70
41437;DHT22;27178;49.460;10.850;2023-08-21T02:54:24;28.70;70.70
41437;DHT22;27178;49.460;10.850;2023-08-21T02:56:52;28.70;70.60
41437;DHT22;27178;49.460;10.850;2023-08-21T02:59:21;28.70;70.70
41437;DHT22;27178;49.460;10.850;2023-08-21T03:01:49;28.70;70.70
41437;DHT22;27178;49.460;10.850;2023-08-21T03:04:18;28.70;70.70
41437;DHT22;27178;49.460;10.850;2023-08-21T03:06:48;28.70;70.80
41437;DHT22;27178;49.460;10.850;2023-08-21T03:09:16;28.70;70.80
41437;DHT22;27178;49.460;10.850;2023-08-21T03:11:45;28.60;70.80
41437;DHT22;27178;49.460;10.850;2023-08-21T03:14:13;28.60;70.80
41437;DHT22;27178;49.460;10.850;2023-08-21T03:16:41;28.60;71.20
41437;DHT22;27178;49.460;10.850;2023-08-21T03:19:10;28.60;71.20
41437;DHT22;27178;49.460;10.850;2023-08-21T03:21:38;28.60;71.30
41437;DHT22;27178;49.460;10.850;2023-08-21T03:24:08;28.50;71.30
41437;DHT22;27178;49.460;10.850;2023-08-21T03:26:37;28.60;71.30
41437;DHT22;27178;49.460;10.850;2023-08-21T03:29:05;28.50;71.30
41437;DHT22;27178;49.460;10.850;2023-08-21T03:31:34;28.50;71.40
41437;DHT22;27178;49.460;10.850;2023-08-21T03:34:02;28.50;71.60
41437;DHT22;27178;49.460;10.850;2023-08-21T03:36:31;28.40;71.40
41437;DHT22;27178;49.460;10.850;2023-08-21T03:39:00;28.50;71.50
41437;DHT22;27178;49.460;10.850;2023-08-21T03:41:30;28.50;71.70
41437;DHT22;27178;49.460;10.850;2023-08-21T03:43:59;28.40;71.70
41437;DHT22;27178;49.460;10.850;2023-08-21T03:46:27;28.40;71.60
41437;DHT22;27178;49.460;10.850;2023-08-21T03:48:56;28.40;71.70
41437;DHT22;27178;49.460;10.850;2023-08-21T03:51:24;28.40;71.80
41437;DHT22;27178;49.460;10.850;2023-08-21T03:53:53;28.40;71.80
41437;DHT22;27178;49.460;10.850;2023-08-21T03:56:21;28.30;71.90
41437;DHT22;27178;49.460;10.850;2023-08-21T03:58:51;28.30;72.00
41437;DHT22;27178;49.460;10.850;2023-08-21T04:01:19;28.30;72.00
41437;DHT22;27178;49.460;10.850;2023-08-21T04:03:48;28.30;72.00
41437;DHT22;27178;49.460;10.850;2023-08-21T04:06:17;28.30;72.20
41437;DHT22;27178;49.460;10.850;2023-08-21T04:08:45;28.30;72.20
41437;DHT22;27178;49.460;10.850;2023-08-21T04:11:15;28.20;72.00
41437;DHT22;27178;49.460;10.850;2023-08-21T04:13:44;28.20;72.00
41437;DHT22;27178;49.460;10.850;2023-08-21T04:16:14;28.20;71.90
41437;DHT22;27178;49.460;10.850;2023-08-21T04:18:44;28.20;72.10
41437;DHT22;27178;49.460;10.850;2023-08-21T04:21:13;28.20;72.00
41437;DHT22;27178;49.460;10.850;2023-08-21T04:23:43;28.20;72.10
41437;DHT22;27178;49.460;10.850;2023-08-21T04:26:11;28.20;72.30
41437;DHT22;27178;49.460;10.850;2023-08-21T04:28:40;28.20;72.40
41437;DHT22;27178;49.460;10.850;2023-08-21T04:31:08;28.10;72.50
41437;DHT22;27178;49.460;10.850;2023-08-21T04:33:38;28.20;72.80
41437;DHT22;27178;49.460;10.850;2023-08-21T04:36:07;28.10;72.70
41437;DHT22;27178;49.460;10.850;2023-08-21T04:38:37;28.10;72.80
41437;DHT22;27178;49.460;10.850;2023-08-21T04:41:08;28.10;73.00
41437;DHT22;27178;49.460;10.850;2023-08-21T04:43:37;28.10;73.30
41437;DHT22;27178;49.460;10.850;2023-08-21T04:46:05;28.10;73.20
41437;DHT22;27178;49.460;10.850;2023-08-21T04:48:34;28.10;73.20
41437;DHT22;27178;49.460;10.850;2023-08-21T04:51:04;28.10;73.30
41437;DHT22;27178;49.460;10.850;2023-08-21T04:53:32;28.10;73.40
41437;DHT22;27178;49.460;10.850;2023-08-21T04:56:00;28.10;73.40
41437;DHT22;27178;49.460;10.850;2023-08-21T04:58:30;28.10;73.40
41437;DHT22;27178;49.460;10.850;2023-08-21T05:00:59;28.10;73.40
41437;DHT22;27178;49.460;10.850;2023-08-21T05:03:27;28.10;73.40
41437;DHT22;27178;49.460;10.850;2023-08-21T05:05:56;28.10;73.40
41437;DHT22;27178;49.460;10.850;2023-08-21T05:08:26;28.00;73.50
41437;DHT22;27178;49.460;10.850;2023-08-21T05:10:55;28.10;73.60
41437;DHT22;27178;49.460;10.850;2023-08-21T05:13:24;28.00;73.60
41437;DHT22;27178;49.460;10.850;2023-08-21T05:15:53;28.00;73.60
41437;DHT22;27178;49.460;10.850;2023-08-21T05:18:22;28.00;73.60
41437;DHT22;27178;49.460;10.850;2023-08-21T05:20:53;28.00;73.80
41437;DHT22;27178;49.460;10.850;2023-08-21T05:23:22;28.00;73.80
41437;DHT22;27178;49.460;10.850;2023-08-21T05:25:51;28.00;73.80
41437;DHT22;27178;49.460;10.850;2023-08-21T05:28:20;28.10;74.00
41437;DHT22;27178;49.460;10.850;2023-08-21T05:30:54;28.00;73.80
41437;DHT22;27178;49.460;10.850;2023-08-21T05:33:22;28.00;74.00
41437;DHT22;27178;49.460;10.850;2023-08-21T05:35:50;28.00;73.90
41437;DHT22;27178;49.460;10.850;2023-08-21T05:38:19;28.00;74.00
41437;DHT22;27178;49.460;10.850;2023-08-21T05:40:48;28.00;74.00
41437;DHT22;27178;49.460;10.850;2023-08-21T05:43:17;28.00;74.10
41437;DHT22;27178;49.460;10.850;2023-08-21T05:45:46;28.00;74.00
41437;DHT22;27178;49.460;10.850;2023-08-21T05:48:14;28.00;74.00
41437;DHT22;27178;49.460;10.850;2023-08-21T05:50:44;28.00;74.00
41437;DHT22;27178;49.460;10.850;2023-08-21T05:53:12;28.00;74.20
41437;DHT22;27178;49.460;10.850;2023-08-21T05:55:41;28.00;74.20
41437;DHT22;27178;49.460;10.850;2023-08-21T05:58:09;28.00;74.30
41437;DHT22;27178;49.460;10.850;2023-08-21T06:00:39;28.00;74.40
41437;DHT22;27178;49.460;10.850;2023-08-21T06:03:08;28.10;75.60
41437;DHT22;27178;49.460;10.850;2023-08-21T06:05:36;28.10;74.60
41437;DHT22;27178;49.460;10.850;2023-08-21T06:08:05;28.10;74.70
41437;DHT22;27178;49.460;10.850;2023-08-21T06:10:36;28.10;74.90
41437;DHT22;27178;49.460;10.850;2023-08-21T06:13:04;28.10;75.00
41437;DHT22;27178;49.460;10.850;2023-08-21T06:15:32;28.10;75.00
41437;DHT22;27178;49.460;10.850;2023-08-21T06:18:03;28.20;75.00
41437;DHT22;27178;49.460;10.850;2023-08-21T06:20:31;28.20;75.00
41437;DHT22;27178;49.460;10.850;2023-08-21T06:23:00;28.10;74.70
41437;DHT22;27178;49.460;10.850;2023-08-21T06:25:28;28.20;74.90
41437;DHT22;27178;49.460;10.850;2023-08-21T06:27:57;28.20;74.90
41437;DHT22;27178;49.460;10.850;2023-08-21T06:30:26;28.20;74.80
41437;DHT22;27178;49.460;10.850;2023-08-21T06:32:55;28.20;74.80
41437;DHT22;27178;49.460;10.850;2023-08-21T06:35:24;28.20;74.70
41437;DHT22;27178;49.460;10.850;2023-08-21T06:37:53;28.20;75.80
41437;DHT22;27178;49.460;10.850;2023-08-21T06:40:22;28.30;74.80
41437;DHT22;27178;49.460;10.850;2023-08-21T06:42:50;28.30;74.80
41437;DHT22;27178;49.460;10.850;2023-08-21T06:45:20;28.30;74.80
41437;DHT22;27178;49.460;10.850;2023-08-21T06:47:48;28.30;74.80
41437;DHT22;27178;49.460;10.850;2023-08-21T06:50:17;28.30;74.80
41437;DHT22;27178;49.460;10.850;2023-08-21T06:52:47;28.30;74.90
41437;DHT22;27178;49.460;10.850;2023-08-21T06:55:15;28.30;74.90
41437;DHT22;27178;49.460;10.850;2023-08-21T06:57:44;28.30;74.90
41437;DHT22;27178;49.460;10.850;2023-08-21T07:00:13;28.30;74.90
41437;DHT22;27178;49.460;10.850;2023-08-21T07:02:41;28.30;74.90
41437;DHT22;27178;49.460;10.850;2023-08-21T07:05:09;28.30;74.90
41437;DHT22;27178;49.460;10.850;2023-08-21T07:07:38;28.30;74.80
41437;DHT22;27178;49.460;10.850;2023-08-21T07:10:09;28.30;74.90
41437;DHT22;27178;49.460;10.850;2023-08-21T07:12:37;28.30;75.10
41437;DHT22;27178;49.460;10.850;2023-08-21T07:15:07;28.30;75.10
41437;DHT22;27178;49.460;10.850;2023-08-21T07:17:36;28.30;75.10
41437;DHT22;27178;49.460;10.850;2023-08-21T07:20:05;28.30;75.10
41437;DHT22;27178;49.460;10.850;2023-08-21T07:22:34;28.40;75.30
41437;DHT22;27178;49.460;10.850;2023-08-21T07:25:04;28.40;75.10
41437;DHT22;27178;49.460;10.850;2023-08-21T07:27:34;28.40;75.10
41437;DHT22;27178;49.460;10.850;2023-08-21T07:30:03;28.40;75.10
41437;DHT22;27178;49.460;10.850;2023-08-21T07:32:32;28.50;74.40
41437;DHT22;27178;49.460;10.850;2023-08-21T07:35:01;28.40;75.20
41437;DHT22;27178;49.460;10.850;2023-08-21T07:37:29;28.40;75.10
41437;DHT22;27178;49.460;10.850;2023-08-21T07:39:57;28.40;75.10
41437;DHT22;27178;49.460;10.850;2023-08-21T07:42:26;28.50;75.10
41437;DHT22;27178;49.460;10.850;2023-08-21T07:44:56;28.50;75.10
41437;DHT22;27178;49.460;10.850;2023-08-21T07:47:26;28.50;74.80
41437;DHT22;27178;49.460;10.850;2023-08-21T07:49:56;28.60;75.00
41437;DHT22;27178;49.460;10.850;2023-08-21T07:52:24;28.60;74.70
41437;DHT22;27178;49.460;10.850;2023-08-21T07:54:53;28.70;75.00
41437;DHT22;27178;49.460;10.850;2023-08-21T07:57:21;28.80;75.10
41437;DHT22;27178;49.460;10.850;2023-08-21T07:59:49;28.80;74.80
41437;DHT22;27178;49.460;10.850;2023-08-21T08:02:22;28.80;74.70
41437;DHT22;27178;49.460;10.850;2023-08-21T08:04:51;28.90;75.10
41437;DHT22;27178;49.460;10.850;2023-08-21T08:07:20;28.90;75.00
41437;DHT22;27178;49.460;10.850;2023-08-21T08:09:49;29.00;74.80
41437;DHT22;27178;49.460;10.850;2023-08-21T08:12:18;29.10;74.90
41437;DHT22;27178;49.460;10.850;2023-08-21T08:14:47;29.10;74.50
41437;DHT22;27178;49.460;10.850;2023-08-21T08:17:15;29.10;74.40
41437;DHT22;27178;49.460;10.850;2023-08-21T08:19:45;29.10;74.40
41437;DHT22;27178;49.460;10.850;2023-08-21T08:22:13;29.20;74.30
41437;DHT22;27178;49.460;10.850;2023-08-21T08:24:42;29.20;74.50
41437;DHT22;27178;49.460;10.850;2023-08-21T08:27:10;29.20;74.50
41437;DHT22;27178;49.460;10.850;2023-08-21T08:29:39;29.20;74.30
41437;DHT22;27178;49.460;10.850;2023-08-21T08:32:07;29.20;74.30
41437;DHT22;27178;49.460;10.850;2023-08-21T08:34:36;29.20;74.20
41437;DHT22;27178;49.460;10.850;2023-08-21T08:37:06;29.30;74.20
41437;DHT22;27178;49.460;10.850;2023-08-21T08:39:35;29.30;74.10
41437;DHT22;27178;49.460;10.850;2023-08-21T08:42:05;29.30;74.50
41437;DHT22;27178;49.460;10.850;2023-08-21T08:44:35;29.30;74.30
41437;DHT22;27178;49.460;10.850;2023-08-21T08:47:04;29.40;75.10
41437;DHT22;27178;49.460;10.850;2023-08-21T08:49:32;29.30;75.00
41437;DHT22;27178;49.460;10.850;2023-08-21T08:52:01;29.30;74.70
41437;DHT22;27178;49.460;10.850;2023-08-21T08:54:32;29.30;74.90
41437;DHT22;27178;49.460;10.850;2023-08-21T08:57:02;29.30;74.70
41437;DHT22;27178;49.460;10.850;2023-08-21T08:59:32;29.40;75.50
41437;DHT22;27178;49.460;10.850;2023-08-21T09:02:00;29.40;74.80
41437;DHT22;27178;49.460;10.850;2023-08-21T09:04:28;29.40;74.60
41437;DHT22;27178;49.460;10.850;2023-08-21T09:07:06;29.40;74.40
41437;DHT22;27178;49.460;10.850;2023-08-21T09:09:39;29.40;74.20
41437;DHT22;27178;49.460;10.850;2023-08-21T09:12:10;29.50;74.40
41437;DHT22;27178;49.460;10.850;2023-08-21T09:14:39;29.50;74.10
41437;DHT22;27178;49.460;10.850;2023-08-21T09:17:08;29.50;73.80
41437;DHT22;27178;49.460;10.850;2023-08-21T09:19:36;29.60;74.00
41437;DHT22;27178;49.460;10.850;2023-08-21T09:22:09;29.60;73.60
41437;DHT22;27178;49.460;10.850;2023-08-21T09:24:39;29.60;73.40
41437;DHT22;27178;49.460;10.850;2023-08-21T09:27:16;29.70;73.50
41437;DHT22;27178;49.460;10.850;2023-08-21T09:29:46;29.70;73.60
41437;DHT22;27178;49.460;10.850;2023-08-21T09:32:14;29.80;73.30
41437;DHT22;27178;49.460;10.850;2023-08-21T09:34:43;29.80;73.60
41437;DHT22;27178;49.460;10.850;2023-08-21T09:37:12;29.80;73.30
41437;DHT22;27178;49.460;10.850;2023-08-21T09:39:42;29.80;72.90
41437;DHT22;27178;49.460;10.850;2023-08-21T09:42:11;29.90;72.80
41437;DHT22;27178;49.460;10.850;2023-08-21T09:44:41;29.90;72.70
41437;DHT22;27178;49.460;10.850;2023-08-21T09:47:11;29.90;72.90
41437;DHT22;27178;49.460;10.850;2023-08-21T09:49:39;30.00;72.60
41437;DHT22;27178;49.460;10.850;2023-08-21T09:52:09;30.00;72.50
41437;DHT22;27178;49.460;10.850;2023-08-21T09:54:39;30.10;72.10
41437;DHT22;27178;49.460;10.850;2023-08-21T09:57:09;30.10;72.00
41437;DHT22;27178;49.460;10.850;2023-08-21T09:59:40;30.10;71.80
41437;DHT22;27178;49.460;10.850;2023-08-21T10:02:09;30.20;72.70
41437;DHT22;27178;49.460;10.850;2023-08-21T10:04:40;30.20;71.60
41437;DHT22;27178;49.460;10.850;2023-08-21T10:07:10;30.30;71.30
41437;DHT22;27178;49.460;10.850;2023-08-21T10:09:42;30.30;71.10
41437;DHT22;27178;49.460;10.850;2023-08-21T10:12:13;30.30;70.90
41437;DHT22;27178;49.460;10.850;2023-08-21T10:14:42;30.40;70.80
41437;DHT22;27178;49.460;10.850;2023-08-21T10:17:11;30.40;70.60
41437;DHT22;27178;49.460;10.850;2023-08-21T10:19:39;30.50;70.50
41437;DHT22;27178;49.460;10.850;2023-08-21T10:22:07;30.60;70.30
41437;DHT22;27178;49.460;10.850;2023-08-21T10:24:36;30.60;70.10
41437;DHT22;27178;49.460;10.850;2023-08-21T10:27:06;30.70;69.70
41437;DHT22;27178;49.460;10.850;2023-08-21T10:29:40;30.70;69.40
41437;DHT22;27178;49.460;10.850;2023-08-21T10:32:10;30.80;68.90
41437;DHT22;27178;49.460;10.850;2023-08-21T10:34:38;30.80;68.80
41437;DHT22;27178;49.460;10.850;2023-08-21T10:37:08;30.90;68.60
41437;DHT22;27178;49.460;10.850;2023-08-21T10:39:55;31.00;68.40
41437;DHT22;27178;49.460;10.850;2023-08-21T10:42:37;31.10;68.00
41437;DHT22;27178;49.460;10.850;2023-08-21T10:45:13;31.10;67.70
41437;DHT22;27178;49.460;10.850;2023-08-21T10:47:41;31.20;67.60
41437;DHT22;27178;49.460;10.850;2023-08-21T10:50:10;31.30;67.70
41437;DHT22;27178;49.460;10.850;2023-08-21T10:52:39;31.40;67.50
41437;DHT22;27178;49.460;10.850;2023-08-21T10:55:09;31.40;67.40
41437;DHT22;27178;49.460;10.850;2023-08-21T10:57:38;31.50;67.10
41437;DHT22;27178;49.460;10.850;2023-08-21T11:00:09;31.50;67.00
41437;DHT22;27178;49.460;10.850;2023-08-21T11:02:40;31.60;66.60
41437;DHT22;27178;49.460;10.850;2023-08-21T11:05:10;31.70;66.10
41437;DHT22;27178;49.460;10.850;2023-08-21T11:07:39;31.80;65.90
41437;DHT22;27178;49.460;10.850;2023-08-21T11:10:12;31.80;65.70
41437;DHT22;27178;49.460;10.850;2023-08-21T11:12:49;31.80;65.50
41437;DHT22;27178;49.460;10.850;2023-08-21T11:15:18;31.90;64.50
41437;DHT22;27178;49.460;10.850;2023-08-21T11:17:55;32.00;65.40
41437;DHT22;27178;49.460;10.850;2023-08-21T11:20:28;32.10;65.10
41437;DHT22;27178;49.460;10.850;2023-08-21T11:22:57;32.10;65.00
41437;DHT22;27178;49.460;10.850;2023-08-21T11:25:26;32.20;65.10
41437;DHT22;27178;49.460;10.850;2023-08-21T11:27:55;32.20;64.80
41437;DHT22;27178;49.460;10.850;2023-08-21T11:30:23;32.40;64.60
41437;DHT22;27178;49.460;10.850;2023-08-21T11:33:06;32.40;64.00
41437;DHT22;27178;49.460;10.850;2023-08-21T11:35:35;32.50;63.40
41437;DHT22;27178;49.460;10.850;2023-08-21T11:38:03;32.60;63.30
41437;DHT22;27178;49.460;10.850;2023-08-21T11:40:36;32.60;63.30
41437;DHT22;27178;49.460;10.850;2023-08-21T11:43:04;32.80;63.20
41437;DHT22;27178;49.460;10.850;2023-08-21T11:45:35;32.80;63.00
41437;DHT22;27178;49.460;10.850;2023-08-21T11:48:24;32.90;62.90
41437;DHT22;27178;49.460;10.850;2023-08-21T11:51:04;33.00;62.50
41437;DHT22;27178;49.460;10.850;2023-08-21T11:53:34;33.10;61.80
41437;DHT22;27178;49.460;10.850;2023-08-21T11:56:09;33.20;62.00
41437;DHT22;27178;49.460;10.850;2023-08-21T11:58:38;33.30;61.70
41437;DHT22;27178;49.460;10.850;2023-08-21T12:01:07;33.40;61.90
41437;DHT22;27178;49.460;10.850;2023-08-21T12:03:39;33.40;61.00
41437;DHT22;27178;49.460;10.850;2023-08-21T12:06:09;33.60;61.00
41437;DHT22;27178;49.460;10.850;2023-08-21T12:08:38;33.70;60.60
41437;DHT22;27178;49.460;10.850;2023-08-21T12:11:07;33.80;60.80
41437;DHT22;27178;49.460;10.850;2023-08-21T12:13:35;35.20;61.90
41437;DHT22;27178;49.460;10.850;2023-08-21T12:16:04;33.90;60.30
41437;DHT22;27178;49.460;10.850;2023-08-21T12:18:32;34.10;60.10
41437;DHT22;27178;49.460;10.850;2023-08-21T12:21:02;34.10;60.00
41437;DHT22;27178;49.460;10.850;2023-08-21T12:23:34;34.20;59.70
41437;DHT22;27178;49.460;10.850;2023-08-21T12:26:02;34.30;59.00
41437;DHT22;27178;49.460;10.850;2023-08-21T12:28:30;34.40;59.00
41437;DHT22;27178;49.460;10.850;2023-08-21T12:30:59;34.50;59.10
41437;DHT22;27178;49.460;10.850;2023-08-21T12:33:27;34.50;58.50
41437;DHT22;27178;49.460;10.850;2023-08-21T12:35:55;34.70;58.80
41437;DHT22;27178;49.460;10.850;2023-08-21T12:38:25;34.70;58.40
41437;DHT22;27178;49.460;10.850;2023-08-21T12:41:03;34.80;58.10
41437;DHT22;27178;49.460;10.850;2023-08-21T12:43:31;34.90;57.80
41437;DHT22;27178;49.460;10.850;2023-08-21T12:46:00;34.90;58.00
41437;DHT22;27178;49.460;10.850;2023-08-21T12:48:28;35.00;57.90
41437;DHT22;27178;49.460;10.850;2023-08-21T12:50:58;35.00;57.60
41437;DHT22;27178;49.460;10.850;2023-08-21T12:53:27;35.10;57.50
41437;DHT22;27178;49.460;10.850;2023-08-21T12:55:55;35.10;57.50
41437;DHT22;27178;49.460;10.850;2023-08-21T12:58:24;35.10;57.50
41437;DHT22;27178;49.460;10.850;2023-08-21T13:00:52;35.20;57.50
41437;DHT22;27178;49.460;10.850;2023-08-21T13:03:21;35.30;57.50
41437;DHT22;27178;49.460;10.850;2023-08-21T13:05:51;35.30;57.20
41437;DHT22;27178;49.460;10.850;2023-08-21T13:08:20;35.40;57.20
41437;DHT22;27178;49.460;10.850;2023-08-21T13:10:50;35.50;57.30
41437;DHT22;27178;49.460;10.850;2023-08-21T13:13:19;35.60;57.10
41437;DHT22;27178;49.460;10.850;2023-08-21T13:15:47;35.80;57.00
41437;DHT22;27178;49.460;10.850;2023-08-21T13:18:15;35.90;56.80
41437;DHT22;27178;49.460;10.850;2023-08-21T13:20:43;36.00;56.10
41437;DHT22;27178;49.460;10.850;2023-08-21T13:23:12;36.10;55.80
41437;DHT22;27178;49.460;10.850;2023-08-21T13:25:41;36.20;55.50
41437;DHT22;27178;49.460;10.850;2023-08-21T13:28:10;36.30;55.50
41437;DHT22;27178;49.460;10.850;2023-08-21T13:30:39;36.40;55.30
41437;DHT22;27178;49.460;10.850;2023-08-21T13:33:07;36.50;55.40
41437;DHT22;27178;49.460;10.850;2023-08-21T13:35:35;36.60;55.30
41437;DHT22;27178;49.460;10.850;2023-08-21T13:38:04;36.70;54.60
41437;DHT22;27178;49.460;10.850;2023-08-21T13:40:32;36.70;54.60
41437;DHT22;27178;49.460;10.850;2023-08-21T13:43:01;36.80;54.60
41437;DHT22;27178;49.460;10.850;2023-08-21T13:45:32;36.90;54.50
41437;DHT22;27178;49.460;10.850;2023-08-21T13:48:00;37.00;54.30
41437;DHT22;27178;49.460;10.850;2023-08-21T13:50:28;37.10;54.50
41437;DHT22;27178;49.460;10.850;2023-08-21T13:52:57;37.10;53.50
41437;DHT22;27178;49.460;10.850;2023-08-21T13:55:26;37.20;53.90
41437;DHT22;27178;49.460;10.850;2023-08-21T13:57:55;37.20;53.80
41437;DHT22;27178;49.460;10.850;2023-08-21T14:00:23;37.30;53.50
41437;DHT22;27178;49.460;10.850;2023-08-21T14:02:53;37.30;53.50
41437;DHT22;27178;49.460;10.850;2023-08-21T14:05:22;37.30;53.30
41437;DHT22;27178;49.460;10.850;2023-08-21T14:07:50;37.30;53.40
41437;DHT22;27178;49.460;10.850;2023-08-21T14:10:19;37.30;53.40
41437;DHT22;27178;49.460;10.850;2023-08-21T14:12:47;37.40;53.20
41437;DHT22;27178;49.460;10.850;2023-08-21T14:15:15;37.50;53.10
41437;DHT22;27178;49.460;10.850;2023-08-21T14:17:45;37.50;53.10
41437;DHT22;27178;49.460;10.850;2023-08-21T14:20:15;37.60;52.90
41437;DHT22;27178;49.460;10.850;2023-08-21T14:22:44;37.70;52.30
41437;DHT22;27178;49.460;10.850;2023-08-21T14:25:16;37.80;52.70
41437;DHT22;27178;49.460;10.850;2023-08-21T14:27:46;37.90;52.70
41437;DHT22;27178;49.460;10.850;2023-08-21T14:30:15;38.00;52.70
41437;DHT22;27178;49.460;10.850;2023-08-21T14:32:43;38.10;52.10
41437;DHT22;27178;49.460;10.850;2023-08-21T14:35:13;38.20;52.00
41437;DHT22;27178;49.460;10.850;2023-08-21T14:37:43;38.20;51.70
41437;DHT22;27178;49.460;10.850;2023-08-21T14:40:11;38.20;51.60
41437;DHT22;27178;49.460;10.850;2023-08-21T14:42:40;38.20;51.30
41437;DHT22;27178;49.460;10.850;2023-08-21T14:45:09;38.10;51.30
41437;DHT22;27178;49.460;10.850;2023-08-21T14:47:37;38.00;51.40
41437;DHT22;27178;49.460;10.850;2023-08-21T14:50:06;37.90;51.70
41437;DHT22;27178;49.460;10.850;2023-08-21T14:52:35;37.80;52.00
41437;DHT22;27178;49.460;10.850;2023-08-21T14:55:05;37.70;52.10
41437;DHT22;27178;49.460;10.850;2023-08-21T14:57:34;37.60;52.60
41437;DHT22;27178;49.460;10.850;2023-08-21T15:00:03;37.70;52.60
41437;DHT22;27178;49.460;10.850;2023-08-21T15:02:31;37.70;52.40
41437;DHT22;27178;49.460;10.850;2023-08-21T15:05:03;37.70;52.50
41437;DHT22;27178;49.460;10.850;2023-08-21T15:07:32;37.80;51.50
41437;DHT22;27178;49.460;10.850;2023-08-21T15:10:01;37.90;51.80
41437;DHT22;27178;49.460;10.850;2023-08-21T15:12:31;37.90;50.90
41437;DHT22;27178;49.460;10.850;2023-08-21T15:14:59;38.00;50.70
41437;DHT22;27178;49.460;10.850;2023-08-21T15:17:29;38.00;50.70
41437;DHT22;27178;49.460;10.850;2023-08-21T15:19:57;38.10;50.60
41437;DHT22;27178;49.460;10.850;2023-08-21T15:22:25;38.10;50.30
41437;DHT22;27178;49.460;10.850;2023-08-21T15:24:53;38.20;50.50
41437;DHT22;27178;49.460;10.850;2023-08-21T15:27:22;38.20;50.30